sensor_id;sensor_type;location;lat;lon;timestamp;pressure;altitude;pressure_sealevel;temperature;humidity
70976;BME280;58635;51.198;6.010;2022-08-19T00:00:27;101140.22;;;25.05;52.81
70976;BME280;58635;51.198;6.010;2022-08-19T00:02:53;101149.50;;;25.03;53.11
70976;BME280;58635;51.198;6.010;2022-08-19T00:05:20;101143.97;;;24.99;52.86
70976;BME280;58635;51.198;6.010;2022-08-19T00:07:48;101151.66;;;24.96;52.98
70976;BME280;58635;51.198;6.010;2022-08-19T00:10:15;101148.78;;;24.92;53.13
70976;BME280;58635;51.198;6.010;2022-08-19T00:12:40;101152.78;;;24.90;53.34
70976;BME280;58635;51.198;6.010;2022-08-19T00:15:09;101157.84;;;24.86;53.33
70976;BME280;58635;51.198;6.010;2022-08-19T00:17:42;101166.63;;;24.82;53.43
70976;BME280;58635;51.198;6.010;2022-08-19T00:20:10;101166.69;;;24.76;53.14
70976;BME280;58635;51.198;6.010;2022-08-19T00:22:37;101168.00;;;24.74;53.35
70976;BME280;58635;51.198;6.010;2022-08-19T00:25:05;101158.28;;;24.69;53.10
70976;BME280;58635;51.198;6.010;2022-08-19T00:27:31;101152.25;;;24.64;53.48
70976;BME280;58635;51.198;6.010;2022-08-19T00:29:56;101165.22;;;24.60;53.12
70976;BME280;58635;51.198;6.010;2022-08-19T00:32:21;101158.13;;;24.56;53.10
70976;BME280;58635;51.198;6.010;2022-08-19T00:34:47;101161.88;;;24.49;52.86
70976;BME280;58635;51.198;6.010;2022-08-19T00:37:12;101151.63;;;24.43;52.84
70976;BME280;58635;51.198;6.010;2022-08-19T00:39:38;101150.06;;;24.37;53.28
70976;BME280;58635;51.198;6.010;2022-08-19T00:42:04;101144.56;;;24.33;53.40
70976;BME280;58635;51.198;6.010;2022-08-19T00:44:31;101148.00;;;24.29;53.06
70976;BME280;58635;51.198;6.010;2022-08-19T00:46:58;101154.63;;;24.26;53.15
70976;BME280;58635;51.198;6.010;2022-08-19T00:49:41;101149.09;;;24.23;53.49
70976;BME280;58635;51.198;6.010;2022-08-19T00:52:16;101152.31;;;24.19;53.91
70976;BME280;58635;51.198;6.010;2022-08-19T00:54:44;101152.56;;;24.18;54.01
70976;BME280;58635;51.198;6.010;2022-08-19T00:57:15;101160.78;;;24.16;54.17
70976;BME280;58635;51.198;6.010;2022-08-19T00:59:45;101153.09;;;24.15;54.06
70976;BME280;58635;51.198;6.010;2022-08-19T01:02:11;101153.38;;;24.13;54.36
70976;BME280;58635;51.198;6.010;2022-08-19T01:04:37;101157.09;;;24.12;54.55
70976;BME280;58635;51.198;6.010;2022-08-19T01:07:03;101146.00;;;24.10;54.38
70976;BME280;58635;51.198;6.010;2022-08-19T01:09:29;101147.59;;;24.11;54.21
70976;BME280;58635;51.198;6.010;2022-08-19T01:11:56;101141.78;;;24.09;54.80
70976;BME280;58635;51.198;6.010;2022-08-19T01:14:22;101150.78;;;24.08;54.80
70976;BME280;58635;51.198;6.010;2022-08-19T01:16:48;101150.00;;;24.08;54.59
70976;BME280;58635;51.198;6.010;2022-08-19T01:19:23;101153.97;;;24.05;54.96
70976;BME280;58635;51.198;6.010;2022-08-19T01:22:06;101167.72;;;24.02;54.51
70976;BME280;58635;51.198;6.010;2022-08-19T01:24:33;101167.22;;;24.00;54.80
70976;BME280;58635;51.198;6.010;2022-08-19T01:26:59;101163.28;;;23.98;55.00
70976;BME280;58635;51.198;6.010;2022-08-19T01:29:25;101164.63;;;23.95;54.67
70976;BME280;58635;51.198;6.010;2022-08-19T01:31:50;101165.69;;;23.94;54.77
70976;BME280;58635;51.198;6.010;2022-08-19T01:34:18;101165.97;;;23.92;54.93
70976;BME280;58635;51.198;6.010;2022-08-19T01:36:46;101168.06;;;23.90;54.77
70976;BME280;58635;51.198;6.010;2022-08-19T01:39:23;101163.84;;;23.89;54.92
70976;BME280;58635;51.198;6.010;2022-08-19T01:41:49;101163.31;;;23.87;55.25
70976;BME280;58635;51.198;6.010;2022-08-19T01:44:15;101167.81;;;23.87;55.31
70976;BME280;58635;51.198;6.010;2022-08-19T01:46:42;101170.22;;;23.83;55.25
70976;BME280;58635;51.198;6.010;2022-08-19T01:49:09;101172.06;;;23.83;54.85
70976;BME280;58635;51.198;6.010;2022-08-19T01:51:35;101176.31;;;23.79;54.63
70976;BME280;58635;51.198;6.010;2022-08-19T01:54:01;101185.56;;;23.76;55.07
70976;BME280;58635;51.198;6.010;2022-08-19T01:56:26;101175.81;;;23.72;55.07
70976;BME280;58635;51.198;6.010;2022-08-19T01:59:03;101186.66;;;23.70;55.23
70976;BME280;58635;51.198;6.010;2022-08-19T02:01:29;101190.09;;;23.66;55.08
70976;BME280;58635;51.198;6.010;2022-08-19T02:03:59;101189.84;;;23.62;55.22
70976;BME280;58635;51.198;6.010;2022-08-19T02:06:26;101191.19;;;23.59;54.69
70976;BME280;58635;51.198;6.010;2022-08-19T02:08:52;101194.34;;;23.56;55.05
70976;BME280;58635;51.198;6.010;2022-08-19T02:11:23;101183.53;;;23.53;55.17
70976;BME280;58635;51.198;6.010;2022-08-19T02:13:52;101181.44;;;23.50;54.97
70976;BME280;58635;51.198;6.010;2022-08-19T02:16:18;101189.34;;;23.50;55.07
70976;BME280;58635;51.198;6.010;2022-08-19T02:18:44;101182.50;;;23.49;55.08
70976;BME280;58635;51.198;6.010;2022-08-19T02:21:09;101177.47;;;23.47;55.44
70976;BME280;58635;51.198;6.010;2022-08-19T02:23:36;101179.84;;;23.49;55.00
70976;BME280;58635;51.198;6.010;2022-08-19T02:26:01;101188.56;;;23.49;54.88
70976;BME280;58635;51.198;6.010;2022-08-19T02:28:26;101192.50;;;23.52;55.37
70976;BME280;58635;51.198;6.010;2022-08-19T02:30:52;101189.88;;;23.52;55.83
70976;BME280;58635;51.198;6.010;2022-08-19T02:33:17;101192.50;;;23.52;56.08
70976;BME280;58635;51.198;6.010;2022-08-19T02:35:46;101189.59;;;23.53;56.16
70976;BME280;58635;51.198;6.010;2022-08-19T02:38:13;101196.19;;;23.56;56.31
70976;BME280;58635;51.198;6.010;2022-08-19T02:40:53;101194.34;;;23.56;56.49
70976;BME280;58635;51.198;6.010;2022-08-19T02:43:19;101189.63;;;23.58;56.97
70976;BME280;58635;51.198;6.010;2022-08-19T02:45:45;101180.63;;;23.59;57.18
70976;BME280;58635;51.198;6.010;2022-08-19T02:48:12;101183.00;;;23.61;57.32
70976;BME280;58635;51.198;6.010;2022-08-19T02:50:39;101182.72;;;23.62;57.50
70976;BME280;58635;51.198;6.010;2022-08-19T02:53:05;101177.72;;;23.61;57.54
70976;BME280;58635;51.198;6.010;2022-08-19T02:55:32;101177.72;;;23.61;57.76
70976;BME280;58635;51.198;6.010;2022-08-19T02:57:59;101179.28;;;23.62;57.65
70976;BME280;58635;51.198;6.010;2022-08-19T03:00:25;101172.16;;;23.62;57.43
70976;BME280;58635;51.198;6.010;2022-08-19T03:02:52;101179.81;;;23.64;57.74
70976;BME280;58635;51.198;6.010;2022-08-19T03:05:17;101185.09;;;23.64;57.64
70976;BME280;58635;51.198;6.010;2022-08-19T03:07:43;101186.16;;;23.63;57.28
70976;BME280;58635;51.198;6.010;2022-08-19T03:10:08;101188.00;;;23.62;57.52
70976;BME280;58635;51.198;6.010;2022-08-19T03:12:38;101191.44;;;23.63;57.36
70976;BME280;58635;51.198;6.010;2022-08-19T03:15:07;101195.94;;;23.62;57.74
70976;BME280;58635;51.198;6.010;2022-08-19T03:17:34;101198.06;;;23.60;57.90
70976;BME280;58635;51.198;6.010;2022-08-19T03:19:59;101196.75;;;23.58;57.57
70976;BME280;58635;51.198;6.010;2022-08-19T03:22:25;101195.38;;;23.55;57.15
70976;BME280;58635;51.198;6.010;2022-08-19T03:24:51;101196.22;;;23.51;56.56
70976;BME280;58635;51.198;6.010;2022-08-19T03:27:16;101198.88;;;23.46;56.80
70976;BME280;58635;51.198;6.010;2022-08-19T03:29:43;101202.31;;;23.41;56.69
70976;BME280;58635;51.198;6.010;2022-08-19T03:32:08;101198.63;;;23.37;57.01
70976;BME280;58635;51.198;6.010;2022-08-19T03:34:37;101198.09;;;23.35;57.01
70976;BME280;58635;51.198;6.010;2022-08-19T03:37:09;101190.19;;;23.35;57.14
70976;BME280;58635;51.198;6.010;2022-08-19T03:39:38;101195.75;;;23.33;57.53
70976;BME280;58635;51.198;6.010;2022-08-19T03:42:04;101201.03;;;23.33;58.03
70976;BME280;58635;51.198;6.010;2022-08-19T03:44:30;101195.47;;;23.35;57.98
70976;BME280;58635;51.198;6.010;2022-08-19T03:46:58;101201.81;;;23.34;58.63
70976;BME280;58635;51.198;6.010;2022-08-19T03:49:29;101201.81;;;23.34;58.72
70976;BME280;58635;51.198;6.010;2022-08-19T03:51:56;101205.50;;;23.33;58.61
70976;BME280;58635;51.198;6.010;2022-08-19T03:54:24;101202.09;;;23.32;59.21
70976;BME280;58635;51.198;6.010;2022-08-19T03:56:52;101197.03;;;23.31;59.17
70976;BME280;58635;51.198;6.010;2022-08-19T03:59:31;101204.19;;;23.30;58.56
70976;BME280;58635;51.198;6.010;2022-08-19T04:01:59;101206.03;;;23.30;58.87
70976;BME280;58635;51.198;6.010;2022-08-19T04:04:25;101206.81;;;23.30;59.03
70976;BME280;58635;51.198;6.010;2022-08-19T04:06:51;101208.66;;;23.30;58.97
70976;BME280;58635;51.198;6.010;2022-08-19T04:09:18;101213.94;;;23.30;58.88
70976;BME280;58635;51.198;6.010;2022-08-19T04:11:46;101202.59;;;23.29;58.99
70976;BME280;58635;51.198;6.010;2022-08-19T04:14:18;101197.59;;;23.28;58.50
70976;BME280;58635;51.198;6.010;2022-08-19T04:16:45;101203.41;;;23.25;58.74
70976;BME280;58635;51.198;6.010;2022-08-19T04:19:12;101200.25;;;23.23;59.01
70976;BME280;58635;51.198;6.010;2022-08-19T04:21:38;101211.88;;;23.22;58.84
70976;BME280;58635;51.198;6.010;2022-08-19T04:24:03;101206.84;;;23.20;58.43
70976;BME280;58635;51.198;6.010;2022-08-19T04:26:34;101213.97;;;23.20;58.64
70976;BME280;58635;51.198;6.010;2022-08-19T04:29:01;101209.75;;;23.19;58.76
70976;BME280;58635;51.198;6.010;2022-08-19T04:31:29;101207.91;;;23.19;58.69
70976;BME280;58635;51.198;6.010;2022-08-19T04:33:56;101201.56;;;23.15;59.00
70976;BME280;58635;51.198;6.010;2022-08-19T04:36:25;101204.50;;;23.14;58.74
70976;BME280;58635;51.198;6.010;2022-08-19T04:38:54;101207.41;;;23.12;58.87
70976;BME280;58635;51.198;6.010;2022-08-19T04:41:20;101211.63;;;23.13;58.88
70976;BME280;58635;51.198;6.010;2022-08-19T04:44:04;101204.75;;;23.12;58.68
70976;BME280;58635;51.198;6.010;2022-08-19T04:46:30;101207.13;;;23.14;58.51
70976;BME280;58635;51.198;6.010;2022-08-19T04:48:58;101197.88;;;23.16;58.60
70976;BME280;58635;51.198;6.010;2022-08-19T04:51:23;101208.44;;;23.16;58.53
70976;BME280;58635;51.198;6.010;2022-08-19T04:53:49;101213.44;;;23.18;58.73
70976;BME280;58635;51.198;6.010;2022-08-19T04:56:16;101218.72;;;23.18;58.55
70976;BME280;58635;51.198;6.010;2022-08-19T04:58:46;101224.50;;;23.20;58.42
70976;BME280;58635;51.198;6.010;2022-08-19T05:01:14;101220.56;;;23.17;58.72
70976;BME280;58635;51.198;6.010;2022-08-19T05:03:39;101220.03;;;23.20;58.56
70976;BME280;58635;51.198;6.010;2022-08-19T05:06:06;101219.78;;;23.22;58.89
70976;BME280;58635;51.198;6.010;2022-08-19T05:08:33;101216.09;;;23.23;58.72
70976;BME280;58635;51.198;6.010;2022-08-19T05:10:59;101223.22;;;23.22;58.61
70976;BME280;58635;51.198;6.010;2022-08-19T05:13:25;101229.00;;;23.24;58.30
70976;BME280;58635;51.198;6.010;2022-08-19T05:15:58;101230.06;;;23.28;58.84
70976;BME280;58635;51.198;6.010;2022-08-19T05:18:24;101227.13;;;23.30;58.42
70976;BME280;58635;51.198;6.010;2022-08-19T05:21:10;101241.69;;;23.32;58.18
70976;BME280;58635;51.198;6.010;2022-08-19T05:23:55;101237.69;;;23.35;58.77
70976;BME280;58635;51.198;6.010;2022-08-19T05:26:20;101238.22;;;23.37;57.99
70976;BME280;58635;51.198;6.010;2022-08-19T05:28:46;101237.69;;;23.40;58.11
70976;BME280;58635;51.198;6.010;2022-08-19T05:31:12;101238.19;;;23.42;58.18
70976;BME280;58635;51.198;6.010;2022-08-19T05:33:37;101240.84;;;23.42;57.82
70976;BME280;58635;51.198;6.010;2022-08-19T05:36:05;101239.53;;;23.45;57.84
70976;BME280;58635;51.198;6.010;2022-08-19T05:38:33;101233.47;;;23.44;57.65
70976;BME280;58635;51.198;6.010;2022-08-19T05:40:59;101232.91;;;23.47;58.14
70976;BME280;58635;51.198;6.010;2022-08-19T05:43:24;101234.47;;;23.53;57.75
70976;BME280;58635;51.198;6.010;2022-08-19T05:45:50;101226.81;;;23.57;58.27
70976;BME280;58635;51.198;6.010;2022-08-19T05:48:16;101227.88;;;23.61;58.15
70976;BME280;58635;51.198;6.010;2022-08-19T05:50:42;101231.59;;;23.60;58.15
70976;BME280;58635;51.198;6.010;2022-08-19T05:53:10;101241.38;;;23.59;58.30
70976;BME280;58635;51.198;6.010;2022-08-19T05:55:36;101242.16;;;23.60;58.38
70976;BME280;58635;51.198;6.010;2022-08-19T05:58:03;101250.06;;;23.60;57.82
70976;BME280;58635;51.198;6.010;2022-08-19T06:00:29;101250.88;;;23.60;57.97
70976;BME280;58635;51.198;6.010;2022-08-19T06:02:56;101246.09;;;23.62;57.93
70976;BME280;58635;51.198;6.010;2022-08-19T06:05:24;101255.06;;;23.67;58.09
70976;BME280;58635;51.198;6.010;2022-08-19T06:07:49;101245.84;;;23.69;57.92
70976;BME280;58635;51.198;6.010;2022-08-19T06:10:15;101254.00;;;23.73;57.74
70976;BME280;58635;51.198;6.010;2022-08-19T06:12:40;101248.41;;;23.79;57.17
70976;BME280;58635;51.198;6.010;2022-08-19T06:15:10;101246.31;;;23.81;57.02
70976;BME280;58635;51.198;6.010;2022-08-19T06:17:36;101249.47;;;23.83;56.74
70976;BME280;58635;51.198;6.010;2022-08-19T06:20:10;101246.78;;;23.94;56.30
70976;BME280;58635;51.198;6.010;2022-08-19T06:22:45;101258.09;;;24.04;55.98
70976;BME280;58635;51.198;6.010;2022-08-19T06:25:12;101257.78;;;24.16;55.66
70976;BME280;58635;51.198;6.010;2022-08-19T06:27:38;101251.91;;;24.24;55.59
70976;BME280;58635;51.198;6.010;2022-08-19T06:30:04;101251.88;;;24.39;55.39
70976;BME280;58635;51.198;6.010;2022-08-19T06:32:30;101258.06;;;24.59;55.22
70976;BME280;58635;51.198;6.010;2022-08-19T06:34:55;101264.00;;;24.79;54.27
70976;BME280;58635;51.198;6.010;2022-08-19T06:37:21;101271.88;;;24.90;53.85
70976;BME280;58635;51.198;6.010;2022-08-19T06:39:47;101269.72;;;24.92;54.29
70976;BME280;58635;51.198;6.010;2022-08-19T06:42:13;101270.47;;;24.97;53.78
70976;BME280;58635;51.198;6.010;2022-08-19T06:44:42;101266.97;;;25.07;53.68
70976;BME280;58635;51.198;6.010;2022-08-19T06:47:12;101260.81;;;25.17;53.16
70976;BME280;58635;51.198;6.010;2022-08-19T06:49:38;101264.94;;;25.28;53.33
70976;BME280;58635;51.198;6.010;2022-08-19T06:52:04;101264.06;;;25.38;52.77
70976;BME280;58635;51.198;6.010;2022-08-19T06:54:31;101265.03;;;25.47;52.27
70976;BME280;58635;51.198;6.010;2022-08-19T06:56:58;101265.16;;;25.55;52.06
70976;BME280;58635;51.198;6.010;2022-08-19T06:59:24;101270.72;;;25.59;51.77
70976;BME280;58635;51.198;6.010;2022-08-19T07:01:56;101274.38;;;25.63;52.03
70976;BME280;58635;51.198;6.010;2022-08-19T07:04:25;101281.75;;;25.66;51.57
70976;BME280;58635;51.198;6.010;2022-08-19T07:07:06;101290.75;;;25.65;51.57
70976;BME280;58635;51.198;6.010;2022-08-19T07:09:34;101282.63;;;25.56;51.78
70976;BME280;58635;51.198;6.010;2022-08-19T07:11:59;101278.81;;;25.67;51.85
70976;BME280;58635;51.198;6.010;2022-08-19T07:14:26;101272.63;;;25.77;51.33
70976;BME280;58635;51.198;6.010;2022-08-19T07:16:54;101284.97;;;25.87;50.95
70976;BME280;58635;51.198;6.010;2022-08-19T07:19:21;101283.72;;;26.03;50.57
70976;BME280;58635;51.198;6.010;2022-08-19T07:21:49;101289.91;;;26.17;50.02
70976;BME280;58635;51.198;6.010;2022-08-19T07:24:16;101282.75;;;26.18;50.32
70976;BME280;58635;51.198;6.010;2022-08-19T07:26:42;101283.81;;;26.17;50.19
70976;BME280;58635;51.198;6.010;2022-08-19T07:29:10;101281.44;;;26.15;50.31
70976;BME280;58635;51.198;6.010;2022-08-19T07:31:35;101285.25;;;26.09;50.46
70976;BME280;58635;51.198;6.010;2022-08-19T07:34:04;101284.44;;;26.09;50.25
70976;BME280;58635;51.198;6.010;2022-08-19T07:36:37;101288.97;;;26.08;50.28
70976;BME280;58635;51.198;6.010;2022-08-19T07:39:10;101294.84;;;26.05;50.05
70976;BME280;58635;51.198;6.010;2022-08-19T07:41:37;101295.75;;;25.96;50.29
70976;BME280;58635;51.198;6.010;2022-08-19T07:44:04;101302.97;;;25.90;50.35
70976;BME280;58635;51.198;6.010;2022-08-19T07:46:37;101306.75;;;25.84;50.48
70976;BME280;58635;51.198;6.010;2022-08-19T07:49:04;101305.22;;;25.78;50.62
70976;BME280;58635;51.198;6.010;2022-08-19T07:51:30;101303.22;;;25.64;50.59
70976;BME280;58635;51.198;6.010;2022-08-19T07:53:56;101300.94;;;25.58;51.11
70976;BME280;58635;51.198;6.010;2022-08-19T07:56:22;101306.72;;;25.60;51.16
70976;BME280;58635;51.198;6.010;2022-08-19T07:58:49;101314.16;;;25.58;51.10
70976;BME280;58635;51.198;6.010;2022-08-19T08:01:19;101313.88;;;25.59;51.22
70976;BME280;58635;51.198;6.010;2022-08-19T08:03:47;101314.97;;;25.58;51.43
70976;BME280;58635;51.198;6.010;2022-08-19T08:06:31;101319.69;;;25.61;51.28
70976;BME280;58635;51.198;6.010;2022-08-19T08:09:18;101314.31;;;25.66;51.51
70976;BME280;58635;51.198;6.010;2022-08-19T08:11:53;101321.19;;;25.73;50.95
70976;BME280;58635;51.198;6.010;2022-08-19T08:14:26;101329.66;;;25.75;50.78
70976;BME280;58635;51.198;6.010;2022-08-19T08:16:52;101321.47;;;25.71;50.22
70976;BME280;58635;51.198;6.010;2022-08-19T08:19:20;101332.97;;;25.85;50.36
70976;BME280;58635;51.198;6.010;2022-08-19T08:21:46;101336.22;;;26.01;50.19
70976;BME280;58635;51.198;6.010;2022-08-19T08:24:11;101332.09;;;26.14;50.06
70976;BME280;58635;51.198;6.010;2022-08-19T08:26:37;101330.41;;;26.23;49.69
70976;BME280;58635;51.198;6.010;2022-08-19T08:29:02;101334.28;;;26.31;49.31
70976;BME280;58635;51.198;6.010;2022-08-19T08:31:28;101334.41;;;26.44;49.55
70976;BME280;58635;51.198;6.010;2022-08-19T08:33:54;101329.75;;;26.55;49.22
70976;BME280;58635;51.198;6.010;2022-08-19T08:36:20;101329.06;;;26.63;49.12
70976;BME280;58635;51.198;6.010;2022-08-19T08:38:46;101327.94;;;26.69;48.99
70976;BME280;58635;51.198;6.010;2022-08-19T08:44:13;101333.69;;;26.76;48.28
70976;BME280;58635;51.198;6.010;2022-08-19T08:46:46;101332.81;;;26.81;47.96
70976;BME280;58635;51.198;6.010;2022-08-19T08:51:51;101331.16;;;26.85;48.21
70976;BME280;58635;51.198;6.010;2022-08-19T08:54:20;101335.38;;;27.05;47.97
70976;BME280;58635;51.198;6.010;2022-08-19T08:56:49;101334.03;;;27.21;47.35
70976;BME280;58635;51.198;6.010;2022-08-19T09:01:47;101338.72;;;27.43;46.78
70976;BME280;58635;51.198;6.010;2022-08-19T09:04:13;101338.72;;;27.57;46.76
70976;BME280;58635;51.198;6.010;2022-08-19T09:09:17;101336.63;;;27.86;46.39
70976;BME280;58635;51.198;6.010;2022-08-19T09:11:54;101331.19;;;27.91;46.29
70976;BME280;58635;51.198;6.010;2022-08-19T09:17:06;101326.97;;;27.90;45.88
70976;BME280;58635;51.198;6.010;2022-08-19T09:19:35;101328.34;;;27.88;46.00
70976;BME280;58635;51.198;6.010;2022-08-19T09:22:01;101327.84;;;27.86;46.20
70976;BME280;58635;51.198;6.010;2022-08-19T09:24:26;101333.97;;;27.86;45.86
70976;BME280;58635;51.198;6.010;2022-08-19T09:26:52;101330.69;;;27.89;46.03
70976;BME280;58635;51.198;6.010;2022-08-19T09:29:17;101337.28;;;27.92;46.04
70976;BME280;58635;51.198;6.010;2022-08-19T09:31:43;101328.22;;;27.93;46.00
70976;BME280;58635;51.198;6.010;2022-08-19T09:34:08;101331.88;;;27.97;45.85
70976;BME280;58635;51.198;6.010;2022-08-19T09:36:33;101328.75;;;27.95;45.80
70976;BME280;58635;51.198;6.010;2022-08-19T09:39:04;101331.88;;;27.97;45.66
70976;BME280;58635;51.198;6.010;2022-08-19T09:41:31;101326.34;;;27.93;45.50
70976;BME280;58635;51.198;6.010;2022-08-19T09:43:59;101326.28;;;27.85;45.71
70976;BME280;58635;51.198;6.010;2022-08-19T09:46:27;101325.56;;;27.79;45.97
70976;BME280;58635;51.198;6.010;2022-08-19T09:48:53;101313.69;;;27.77;45.69
70976;BME280;58635;51.198;6.010;2022-08-19T09:51:24;101320.75;;;27.81;45.54
70976;BME280;58635;51.198;6.010;2022-08-19T09:53:51;101318.78;;;27.87;45.37
70976;BME280;58635;51.198;6.010;2022-08-19T09:56:20;101311.50;;;27.92;45.21
70976;BME280;58635;51.198;6.010;2022-08-19T09:58:46;101320.34;;;28.02;45.16
70976;BME280;58635;51.198;6.010;2022-08-19T10:01:21;101314.03;;;28.11;45.00
70976;BME280;58635;51.198;6.010;2022-08-19T10:03:52;101313.66;;;28.18;44.80
70976;BME280;58635;51.198;6.010;2022-08-19T10:06:21;101317.75;;;28.24;44.49
70976;BME280;58635;51.198;6.010;2022-08-19T10:08:47;101313.22;;;28.24;44.34
70976;BME280;58635;51.198;6.010;2022-08-19T10:11:13;101316.78;;;28.20;44.41
70976;BME280;58635;51.198;6.010;2022-08-19T10:13:43;101316.50;;;28.21;44.32
70976;BME280;58635;51.198;6.010;2022-08-19T10:16:12;101313.03;;;28.21;44.56
70976;BME280;58635;51.198;6.010;2022-08-19T10:18:38;101318.16;;;28.17;44.60
70976;BME280;58635;51.198;6.010;2022-08-19T10:21:12;101313.22;;;28.24;44.23
70976;BME280;58635;51.198;6.010;2022-08-19T10:23:40;101320.72;;;28.36;44.34
70976;BME280;58635;51.198;6.010;2022-08-19T10:26:12;101314.56;;;28.49;44.10
70976;BME280;58635;51.198;6.010;2022-08-19T10:28:38;101313.94;;;28.66;43.78
70976;BME280;58635;51.198;6.010;2022-08-19T10:31:10;101314.81;;;28.84;43.06
70976;BME280;58635;51.198;6.010;2022-08-19T10:33:36;101309.75;;;28.96;43.00
70976;BME280;58635;51.198;6.010;2022-08-19T10:36:06;101311.88;;;29.08;42.73
70976;BME280;58635;51.198;6.010;2022-08-19T10:38:32;101312.22;;;29.15;42.38
70976;BME280;58635;51.198;6.010;2022-08-19T10:41:10;101297.66;;;29.21;41.34
70976;BME280;58635;51.198;6.010;2022-08-19T10:43:35;101298.50;;;29.30;41.28
70976;BME280;58635;51.198;6.010;2022-08-19T10:46:04;101306.97;;;29.32;41.04
70976;BME280;58635;51.198;6.010;2022-08-19T10:48:31;101298.50;;;29.30;40.73
70976;BME280;58635;51.198;6.010;2022-08-19T10:50:57;101298.34;;;29.27;40.30
70976;BME280;58635;51.198;6.010;2022-08-19T10:53:41;101291.22;;;29.14;41.04
70976;BME280;58635;51.198;6.010;2022-08-19T10:56:07;101295.09;;;29.07;40.97
70976;BME280;58635;51.198;6.010;2022-08-19T10:58:50;101296.81;;;29.03;40.39
70976;BME280;58635;51.198;6.010;2022-08-19T11:01:16;101297.59;;;29.04;40.63
70976;BME280;58635;51.198;6.010;2022-08-19T11:03:41;101301.09;;;29.13;39.90
70976;BME280;58635;51.198;6.010;2022-08-19T11:06:08;101295.78;;;29.22;39.80
70976;BME280;58635;51.198;6.010;2022-08-19T11:08:34;101297.88;;;29.25;39.63
70976;BME280;58635;51.198;6.010;2022-08-19T11:11:01;101297.25;;;29.28;39.59
70976;BME280;58635;51.198;6.010;2022-08-19T11:13:33;101288.31;;;29.32;39.59
70976;BME280;58635;51.198;6.010;2022-08-19T11:16:07;101295.09;;;29.38;39.17
70976;BME280;58635;51.198;6.010;2022-08-19T11:18:37;101289.94;;;29.42;39.10
70976;BME280;58635;51.198;6.010;2022-08-19T11:23:36;101286.72;;;29.54;38.63
70976;BME280;58635;51.198;6.010;2022-08-19T11:26:02;101288.44;;;29.58;38.69
70976;BME280;58635;51.198;6.010;2022-08-19T11:28:27;101290.34;;;29.66;37.41
70976;BME280;58635;51.198;6.010;2022-08-19T11:30:53;101283.03;;;29.72;37.36
70976;BME280;58635;51.198;6.010;2022-08-19T11:33:19;101267.81;;;29.81;37.01
70976;BME280;58635;51.198;6.010;2022-08-19T11:35:44;101261.84;;;29.93;37.53
70976;BME280;58635;51.198;6.010;2022-08-19T11:38:10;101268.47;;;30.04;36.91
70976;BME280;58635;51.198;6.010;2022-08-19T11:40:36;101271.63;;;30.15;36.95
70976;BME280;58635;51.198;6.010;2022-08-19T11:43:01;101278.09;;;30.31;36.19
70976;BME280;58635;51.198;6.010;2022-08-19T11:45:27;101278.38;;;30.38;36.01
70976;BME280;58635;51.198;6.010;2022-08-19T11:47:54;101266.44;;;30.53;36.32
70976;BME280;58635;51.198;6.010;2022-08-19T11:50:20;101273.03;;;30.73;35.53
70976;BME280;58635;51.198;6.010;2022-08-19T11:52:45;101270.50;;;30.85;35.07
70976;BME280;58635;51.198;6.010;2022-08-19T11:55:13;101277.25;;;30.91;34.90
70976;BME280;58635;51.198;6.010;2022-08-19T11:57:39;101282.44;;;30.88;35.00
70976;BME280;58635;51.198;6.010;2022-08-19T12:00:07;101277.28;;;30.82;35.48
70976;BME280;58635;51.198;6.010;2022-08-19T12:02:33;101273.19;;;30.76;35.55
70976;BME280;58635;51.198;6.010;2022-08-19T12:04:59;101269.59;;;30.72;35.53
70976;BME280;58635;51.198;6.010;2022-08-19T12:07:27;101266.13;;;30.80;35.55
70976;BME280;58635;51.198;6.010;2022-08-19T12:09:52;101279.28;;;30.94;35.48
70976;BME280;58635;51.198;6.010;2022-08-19T12:12:17;101273.41;;;31.09;34.96
70976;BME280;58635;51.198;6.010;2022-08-19T12:14:43;101268.22;;;31.22;34.79
70976;BME280;58635;51.198;6.010;2022-08-19T12:17:08;101269.94;;;31.26;34.39
70976;BME280;58635;51.198;6.010;2022-08-19T12:19:36;101269.72;;;31.40;33.58
70976;BME280;58635;51.198;6.010;2022-08-19T12:22:02;101268.81;;;31.57;33.79
70976;BME280;58635;51.198;6.010;2022-08-19T12:24:30;101281.63;;;31.81;33.69
70976;BME280;58635;51.198;6.010;2022-08-19T12:26:57;101275.94;;;32.03;33.36
70976;BME280;58635;51.198;6.010;2022-08-19T12:29:23;101275.28;;;32.06;33.41
70976;BME280;58635;51.198;6.010;2022-08-19T12:31:53;101268.13;;;31.98;33.55
70976;BME280;58635;51.198;6.010;2022-08-19T12:34:19;101262.97;;;31.93;33.88
70976;BME280;58635;51.198;6.010;2022-08-19T12:36:45;101263.78;;;31.85;33.49
70976;BME280;58635;51.198;6.010;2022-08-19T12:39:10;101272.16;;;31.83;33.36
70976;BME280;58635;51.198;6.010;2022-08-19T12:41:36;101262.19;;;31.92;32.91
70976;BME280;58635;51.198;6.010;2022-08-19T12:44:02;101267.09;;;32.11;32.41
70976;BME280;58635;51.198;6.010;2022-08-19T12:46:28;101261.91;;;32.27;32.40
70976;BME280;58635;51.198;6.010;2022-08-19T12:48:53;101260.00;;;32.27;32.70
70976;BME280;58635;51.198;6.010;2022-08-19T12:51:19;101260.63;;;32.33;32.88
70976;BME280;58635;51.198;6.010;2022-08-19T12:53:46;101258.06;;;32.37;32.56
70976;BME280;58635;51.198;6.010;2022-08-19T12:56:12;101254.53;;;32.24;32.28
70976;BME280;58635;51.198;6.010;2022-08-19T12:58:40;101252.38;;;32.17;32.79
70976;BME280;58635;51.198;6.010;2022-08-19T13:01:15;101245.00;;;32.14;32.90
70976;BME280;58635;51.198;6.010;2022-08-19T13:03:41;101245.22;;;32.09;32.92
70976;BME280;58635;51.198;6.010;2022-08-19T13:06:09;101239.28;;;32.04;32.81
70976;BME280;58635;51.198;6.010;2022-08-19T13:08:35;101237.97;;;32.10;32.60